Time;durP1;ratioP1;P1;durP2;ratioP2;P2;SDS_P1;SDS_P2;PMS_P1;PMS_P2;Temp;Humidity;BMP_temperature;BMP_pressure;BME280_temperature;BME280_humidity;BME280_pressure;Samples;Min_cycle;Max_cycle;Signal;HPM_P1;HPM_P2
2022/09/05 00:01:40;;;;;;;1999.90;999.90;;;17.50;99.90;;;;;;4952226;29;20240;-66
2022/09/05 00:04:14;;;;;;;1999.90;999.90;;;17.60;99.90;;;;;;4952147;29;20183;-66
2022/09/05 00:06:51;;;;;;;1999.90;999.90;;;17.50;99.90;;;;;;4951826;29;20283;-66
2022/09/05 00:09:30;;;;;;;1999.90;999.90;;;17.60;99.90;;;;;;4952010;29;20190;-67
2022/09/05 00:12:01;;;;;;;1999.90;999.90;;;17.60;99.90;;;;;;4951990;29;20181;-67
2022/09/05 00:14:45;;;;;;;1999.90;999.90;;;17.70;99.90;;;;;;5012717;28;20184;-67
2022/09/05 00:17:23;;;;;;;1999.90;999.90;;;17.50;99.90;;;;;;5012390;28;20179;-67
2022/09/05 00:19:58;;;;;;;1999.90;999.90;;;17.50;99.90;;;;;;5012674;28;20183;-66
2022/09/05 00:22:40;;;;;;;1999.90;999.90;;;17.60;99.90;;;;;;5012461;28;20192;-66
2022/09/05 00:25:31;;;;;;;1999.90;999.90;;;17.50;99.90;;;;;;5012310;28;20641;-67
2022/09/05 00:28:07;;;;;;;1999.90;999.90;;;17.50;99.90;;;;;;5011861;28;20214;-67
2022/09/05 00:30:42;;;;;;;1999.90;999.90;;;17.50;99.90;;;;;;5015015;28;20621;-66
2022/09/05 00:33:23;;;;;;;1999.90;999.90;;;17.50;99.90;;;;;;5015376;28;20183;-66
2022/09/05 00:36:08;;;;;;;1999.90;999.90;;;17.40;99.90;;;;;;5016011;28;20192;-67
2022/09/05 00:38:39;;;;;;;1999.90;999.90;;;17.40;99.90;;;;;;5016074;28;20176;-67
2022/09/05 00:41:10;;;;;;;1999.90;999.90;;;17.30;99.90;;;;;;5016395;28;20195;-67
2022/09/05 00:43:39;;;;;;;1999.90;999.90;;;17.40;99.90;;;;;;5016247;28;20200;-67
2022/09/05 00:46:09;;;;;;;1999.90;999.90;;;17.40;99.90;;;;;;5016166;28;20231;-67
2022/09/05 00:48:46;;;;;;;1999.90;999.90;;;17.30;99.90;;;;;;5016054;28;20223;-67
2022/09/05 00:51:23;;;;;;;1999.90;999.90;;;17.30;99.90;;;;;;5016117;28;20188;-67
2022/09/05 00:54:03;;;;;;;1999.90;999.90;;;17.40;99.90;;;;;;5016087;28;20191;-67
2022/09/05 00:56:56;;;;;;;1999.90;999.90;;;17.40;99.90;;;;;;5016076;28;20184;-67
2022/09/05 00:59:46;;;;;;;1999.90;999.90;;;17.40;99.90;;;;;;5016079;28;20195;-66
2022/09/05 01:02:28;;;;;;;1999.90;999.90;;;17.30;99.90;;;;;;5015992;28;20195;-66
2022/09/05 01:05:03;;;;;;;1999.90;999.90;;;17.20;99.90;;;;;;5015587;28;20185;-66
2022/09/05 01:07:41;;;;;;;1999.90;999.90;;;17.10;99.90;;;;;;5015414;28;20578;-67
2022/09/05 01:10:18;;;;;;;1999.90;999.90;;;17.00;99.90;;;;;;5015862;28;20189;-67
2022/09/05 01:12:58;;;;;;;1999.90;999.90;;;17.00;99.90;;;;;;5015883;28;20194;-67
2022/09/05 01:15:32;;;;;;;1999.90;999.90;;;17.00;99.90;;;;;;5015483;28;20187;-66
2022/09/05 01:18:13;;;;;;;1999.90;999.90;;;17.00;99.90;;;;;;5015756;28;20186;-66
2022/09/05 01:21:01;;;;;;;1999.90;999.90;;;17.00;99.90;;;;;;5015433;28;20190;-66
2022/09/05 01:23:49;;;;;;;1999.90;999.90;;;16.90;99.90;;;;;;5015606;28;20197;-66
2022/09/05 01:26:48;;;;;;;1999.90;999.90;;;16.90;99.90;;;;;;5015335;28;20669;-67
2022/09/05 01:29:24;;;;;;;1999.90;999.90;;;16.80;99.90;;;;;;5015520;28;20186;-66
2022/09/05 01:32:08;;;;;;;1999.90;999.90;;;16.70;99.90;;;;;;5015465;28;20192;-65
2022/09/05 01:34:51;;;;;;;1999.90;999.90;;;16.60;99.90;;;;;;5015309;28;20186;-66
2022/09/05 01:37:22;;;;;;;1999.90;999.90;;;16.60;99.90;;;;;;5015259;28;20182;-67
2022/09/05 01:39:58;;;;;;;1999.90;999.90;;;16.70;99.90;;;;;;5014821;28;20179;-67
2022/09/05 01:42:37;;;;;;;1999.90;999.90;;;16.60;99.90;;;;;;5015267;28;20186;-66
2022/09/05 01:45:09;;;;;;;1999.90;999.90;;;16.60;99.90;;;;;;5015181;28;20195;-66
2022/09/05 01:47:48;;;;;;;1999.90;999.90;;;16.60;99.90;;;;;;5014814;28;20211;-66
2022/09/05 01:50:37;;;;;;;1999.90;999.90;;;16.60;99.90;;;;;;5014806;28;20647;-67
2022/09/05 01:53:24;;;;;;;1999.90;999.90;;;16.60;99.90;;;;;;5014820;28;20184;-67
2022/09/05 01:56:13;;;;;;;1999.90;999.90;;;16.50;99.90;;;;;;5014695;28;20655;-67
2022/09/05 01:58:57;;;;;;;1999.90;999.90;;;16.50;99.90;;;;;;5014966;28;20196;-66
2022/09/05 02:01:31;;;;;;;1999.90;999.90;;;16.50;99.90;;;;;;5014489;28;20230;-68
2022/09/05 02:04:13;;;;;;;1999.90;999.90;;;16.50;99.90;;;;;;5014901;28;20182;-66
2022/09/05 02:06:46;;;;;;;1999.90;999.90;;;16.50;99.90;;;;;;5014681;28;20182;-66
2022/09/05 02:09:58;;;;;;;1999.90;999.90;;;16.40;99.90;;;;;;5014739;28;20220;-66
2022/09/05 02:12:30;;;;;;;1999.90;999.90;;;16.30;99.90;;;;;;5014385;28;20544;-66
2022/09/05 02:15:02;;;;;;;1999.90;999.90;;;16.40;99.90;;;;;;5014576;28;20216;-66
2022/09/05 02:17:45;;;;;;;1999.90;999.90;;;16.40;99.90;;;;;;5014579;28;20197;-66
2022/09/05 02:20:18;;;;;;;1999.90;999.90;;;16.50;99.90;;;;;;5014540;28;20186;-66
2022/09/05 02:22:50;;;;;;;1999.90;999.90;;;16.40;99.90;;;;;;5014516;28;20187;-66
2022/09/05 02:25:24;;;;;;;1999.90;999.90;;;16.50;99.90;;;;;;5014388;28;20543;-67
2022/09/05 02:27:59;;;;;;;1999.90;999.90;;;16.50;99.90;;;;;;5014506;28;20205;-66
2022/09/05 02:30:34;;;;;;;1999.90;999.90;;;16.50;99.90;;;;;;5014227;28;20633;-66
2022/09/05 02:33:12;;;;;;;1999.90;999.90;;;16.50;99.90;;;;;;5014094;28;20667;-66
2022/09/05 02:35:47;;;;;;;1999.90;999.90;;;16.40;99.90;;;;;;5014110;28;20193;-66
2022/09/05 02:38:21;;;;;;;1999.90;999.90;;;16.40;99.90;;;;;;5014261;28;20235;-67
2022/09/05 02:40:55;;;;;;;1999.90;999.90;;;16.40;99.90;;;;;;5014197;28;20533;-67
2022/09/05 02:43:30;;;;;;;1999.90;999.90;;;16.30;99.90;;;;;;5014028;28;20647;-66
2022/09/05 02:46:04;;;;;;;1999.90;999.90;;;16.30;99.90;;;;;;5013747;28;20670;-67
2022/09/05 02:48:50;;;;;;;1999.90;999.90;;;16.30;99.90;;;;;;5013626;28;20577;-67
2022/09/05 02:51:22;;;;;;;1999.90;999.90;;;16.30;99.90;;;;;;5013071;28;20190;-67
2022/09/05 02:53:53;;;;;;;1999.90;999.90;;;16.20;99.90;;;;;;5013447;28;20192;-67
2022/09/05 02:56:55;;;;;;;1999.90;999.90;;;16.20;99.90;;;;;;5013550;28;20187;-67
2022/09/05 02:59:38;;;;;;;1999.90;999.90;;;16.20;99.90;;;;;;5013742;28;20181;-66
2022/09/05 03:02:14;;;;;;;1999.90;999.90;;;16.30;99.90;;;;;;5013753;28;20189;-66
2022/09/05 03:04:48;;;;;;;1999.90;999.90;;;16.30;99.90;;;;;;5013833;28;20177;-66
2022/09/05 03:07:40;;;;;;;1999.90;999.90;;;16.20;99.90;;;;;;5013649;28;20192;-67
2022/09/05 03:10:25;;;;;;;1999.90;999.90;;;16.20;99.90;;;;;;5013379;28;20239;-67
2022/09/05 03:13:34;;;;;;;1999.90;999.90;;;16.10;99.90;;;;;;5013678;28;20185;-67
2022/09/05 03:16:34;;;;;;;1999.90;999.90;;;16.00;99.90;;;;;;4952870;29;20210;-66
2022/09/05 03:19:33;;;;;;;1999.90;999.90;;;16.10;99.90;;;;;;4952743;29;20205;-66
2022/09/05 03:22:41;;;;;;;1999.90;999.90;;;16.10;99.90;;;;;;4952795;29;20180;-66
2022/09/05 03:25:50;;;;;;;1999.90;999.90;;;16.10;99.90;;;;;;4952596;29;20206;-67
2022/09/05 03:28:53;;;;;;;1999.90;999.90;;;16.00;99.90;;;;;;4952562;28;20800;-66
2022/09/05 03:31:49;;;;;;;1999.90;999.90;;;16.00;99.90;;;;;;4952512;29;20185;-66
2022/09/05 03:34:44;;;;;;;1999.90;999.90;;;15.90;99.90;;;;;;4952474;29;20214;-66
2022/09/05 03:37:41;;;;;;;1999.90;999.90;;;16.00;99.90;;;;;;4952503;29;20648;-67
2022/09/05 03:40:45;;;;;;;1999.90;999.90;;;16.00;99.90;;;;;;4952431;29;20184;-67
2022/09/05 03:43:31;;;;;;;1999.90;999.90;;;16.00;99.90;;;;;;4952466;29;20185;-66
2022/09/05 03:46:13;;;;;;;1999.90;999.90;;;15.90;99.90;;;;;;4952215;29;20211;-66
2022/09/05 03:49:04;;;;;;;1999.90;999.90;;;15.90;99.90;;;;;;4952366;29;20201;-66
2022/09/05 03:51:35;;;;;;;1999.90;999.90;;;15.80;99.90;;;;;;4974391;28;20197;-67
2022/09/05 03:54:31;;;;;;;1999.90;999.90;;;15.90;99.90;;;;;;5012955;28;20189;-67
2022/09/05 03:57:34;;;;;;;1999.90;999.90;;;15.90;99.90;;;;;;5012973;28;20207;-67
2022/09/05 04:00:20;;;;;;;1999.90;999.90;;;15.90;99.90;;;;;;5008106;28;20776;-66
2022/09/05 04:03:01;;;;;;;1999.90;999.90;;;15.80;99.90;;;;;;5012636;28;20177;-66
2022/09/05 04:05:33;;;;;;;1999.90;999.90;;;15.80;99.90;;;;;;5012435;28;20189;-66
2022/09/05 04:08:09;;;;;;;1999.90;999.90;;;15.80;99.90;;;;;;5012769;28;20206;-67
2022/09/05 04:10:45;;;;;;;1999.90;999.90;;;15.70;99.90;;;;;;5012655;28;20851;-66
2022/09/05 04:13:19;;;;;;;1999.90;999.90;;;15.70;99.90;;;;;;5012841;28;20191;-67
2022/09/05 04:15:50;;;;;;;1999.90;999.90;;;15.70;99.90;;;;;;5012450;28;20189;-66
2022/09/05 04:18:29;;;;;;;1999.90;999.90;;;15.70;99.90;;;;;;5012768;28;20193;-66
2022/09/05 04:21:02;;;;;;;1999.90;999.90;;;15.60;99.90;;;;;;5012985;28;20185;-66
2022/09/05 04:23:41;;;;;;;1999.90;999.90;;;15.50;99.90;;;;;;5012502;28;20189;-67
2022/09/05 04:26:22;;;;;;;1999.90;999.90;;;15.60;99.90;;;;;;5012749;28;20247;-67
2022/09/05 04:29:02;;;;;;;1999.90;999.90;;;15.50;99.90;;;;;;5012581;28;20211;-67
2022/09/05 04:31:38;;;;;;;1999.90;999.90;;;15.50;99.90;;;;;;5012584;28;20177;-67
2022/09/05 04:34:25;;;;;;;1999.90;999.90;;;15.40;99.90;;;;;;5012704;28;20193;-66
2022/09/05 04:37:01;;;;;;;1999.90;999.90;;;15.40;99.90;;;;;;5012257;28;20254;-67
2022/09/05 04:39:29;;;;;;;1999.90;999.90;;;15.40;99.90;;;;;;5012207;28;20189;-67
2022/09/05 04:42:06;;;;;;;1999.90;999.90;;;15.30;99.90;;;;;;5012471;28;20215;-67
2022/09/05 04:44:40;;;;;;;1999.90;999.90;;;15.30;99.90;;;;;;5012270;28;20185;-67
2022/09/05 04:47:11;;;;;;;1999.90;999.90;;;15.20;99.90;;;;;;5012572;28;20193;-67
2022/09/05 04:49:41;;;;;;;1999.90;999.90;;;15.20;99.90;;;;;;5012541;28;20220;-67
2022/09/05 04:52:44;;;;;;;1999.90;999.90;;;15.30;99.90;;;;;;5012134;28;20209;-68
2022/09/05 04:55:13;;;;;;;1999.90;999.90;;;15.30;99.90;;;;;;5012352;28;20185;-67
2022/09/05 04:57:51;;;;;;;1999.90;999.90;;;15.30;99.90;;;;;;5012588;28;20201;-67
2022/09/05 05:00:25;;;;;;;1999.90;999.90;;;15.30;99.90;;;;;;5012064;28;20239;-68
2022/09/05 05:02:56;;;;;;;1999.90;999.90;;;15.30;99.90;;;;;;5012228;28;20651;-66
2022/09/05 05:05:24;;;;;;;1999.90;999.90;;;15.30;99.90;;;;;;5012300;28;20196;-66
2022/09/05 05:07:57;;;;;;;1999.90;999.90;;;15.30;99.90;;;;;;5012399;28;20207;-71
2022/09/05 05:10:35;;;;;;;1999.90;999.90;;;15.30;99.90;;;;;;5012051;28;20177;-67
2022/09/05 05:13:09;;;;;;;1999.90;999.90;;;15.40;99.90;;;;;;5012346;28;20185;-66
2022/09/05 05:15:49;;;;;;;1999.90;999.90;;;15.40;99.90;;;;;;5013921;28;20188;-68
2022/09/05 05:18:25;;;;;;;1999.90;999.90;;;15.40;99.90;;;;;;5015861;28;20181;-67
2022/09/05 05:20:59;;;;;;;1999.90;999.90;;;15.40;99.90;;;;;;5015320;28;20249;-67
2022/09/05 05:23:35;;;;;;;1999.90;999.90;;;15.40;99.90;;;;;;5015700;28;20181;-67
2022/09/05 05:26:05;;;;;;;1999.90;999.90;;;15.40;99.90;;;;;;5015364;28;20191;-67
2022/09/05 05:28:47;;;;;;;1999.90;999.90;;;15.40;99.90;;;;;;5015141;28;20219;-69
2022/09/05 05:31:17;;;;;;;1999.90;999.90;;;15.40;99.90;;;;;;5015140;28;20197;-67
2022/09/05 05:33:47;;;;;;;1999.90;999.90;;;15.50;99.90;;;;;;5014717;28;20187;-68
2022/09/05 05:36:19;;;;;;;1999.90;999.90;;;15.50;99.90;;;;;;5014188;28;20266;-70
2022/09/05 05:38:51;;;;;;;1999.90;999.90;;;15.60;99.90;;;;;;5015098;28;20268;-68
2022/09/05 05:41:22;;;;;;;1999.90;999.90;;;15.60;99.90;;;;;;5014553;28;20189;-67
2022/09/05 05:43:51;;;;;;;1999.90;999.90;;;15.60;99.90;;;;;;5015337;28;20186;-68
2022/09/05 05:46:30;;;;;;;1999.90;999.90;;;15.60;99.90;;;;;;5014733;28;20227;-68
2022/09/05 05:49:14;;;;;;;1999.90;999.90;;;15.70;99.90;;;;;;5014472;28;20209;-69
2022/09/05 05:51:52;;;;;;;1999.90;999.90;;;15.70;99.90;;;;;;5015171;28;20187;-67
2022/09/05 05:54:28;;;;;;;1999.90;999.90;;;15.80;99.90;;;;;;5014695;28;20247;-68
2022/09/05 05:57:33;;;;;;;1999.90;999.90;;;15.90;99.90;;;;;;5015209;28;20183;-69
2022/09/05 06:00:15;;;;;;;1999.90;999.90;;;16.00;99.90;;;;;;5014040;28;20632;-66
2022/09/05 06:03:13;;;;;;;1999.90;999.90;;;16.10;99.90;;;;;;5014855;28;20228;-67
2022/09/05 06:05:55;;;;;;;1999.90;999.90;;;16.20;99.90;;;;;;5014703;28;20192;-66
2022/09/05 06:09:16;;;;;;;1999.90;999.90;;;16.40;99.90;;;;;;5013987;28;20184;-68
2022/09/05 06:12:16;;;;;;;1999.90;999.90;;;16.60;99.90;;;;;;5003705;28;20209;-68
2022/09/05 06:15:13;;;;;;;1999.90;999.90;;;16.80;99.90;;;;;;4989294;28;20216;-67
2022/09/05 06:18:16;;;;;;;1999.90;999.90;;;16.90;99.90;;;;;;5014348;28;20670;-67
2022/09/05 06:21:04;;;;;;;1999.90;999.90;;;17.20;99.90;;;;;;5014754;28;20202;-67
2022/09/05 06:24:12;;;;;;;1999.90;999.90;;;17.50;99.90;;;;;;5014205;28;20570;-70
2022/09/05 06:27:13;;;;;;;1999.90;999.90;;;17.90;99.90;;;;;;5013968;28;20189;-67
2022/09/05 06:29:50;;;;;;;1999.90;999.90;;;18.40;99.90;;;;;;4953208;29;20227;-68
2022/09/05 06:32:32;;;;;;;1999.90;999.90;;;18.80;99.90;;;;;;4955945;28;20189;-67
2022/09/05 06:35:16;;;;;;;1999.90;999.90;;;19.90;99.90;;;;;;4963011;28;20715;-70
2022/09/05 06:37:53;;;;;;;1999.90;999.90;;;20.40;99.90;;;;;;4963611;28;20190;-67
2022/09/05 06:40:28;;;;;;;1999.90;999.90;;;21.00;99.90;;;;;;4963619;28;20194;-67
2022/09/05 06:43:10;;;;;;;1999.90;999.90;;;21.40;99.90;;;;;;4962240;28;20178;-69
2022/09/05 06:46:21;;;;;;;1999.90;999.90;;;21.90;99.90;;;;;;4966900;28;20680;-66
2022/09/05 06:48:55;;;;;;;1999.90;999.90;;;22.50;99.90;;;;;;4972370;28;20186;-68
2022/09/05 06:52:13;;;;;;;1999.90;999.90;;;23.10;99.90;;;;;;4972522;28;20186;-69
2022/09/05 06:55:14;;;;;;;1999.90;999.90;;;23.10;99.90;;;;;;4972271;28;20225;-67
2022/09/05 06:58:13;;;;;;;1999.90;999.90;;;23.20;99.90;;;;;;4972320;28;20181;-67
2022/09/05 07:00:46;;;;;;;1999.90;999.90;;;23.50;99.90;;;;;;4971957;28;20226;-66
2022/09/05 07:03:36;;;;;;;1999.90;999.90;;;23.40;99.90;;;;;;4972287;28;20190;-66
2022/09/05 07:06:08;;;;;;;1999.90;999.90;;;24.00;99.90;;;;;;5001644;28;20211;-67
2022/09/05 07:08:46;;;;;;;1999.90;999.90;;;23.30;99.90;;;;;;5033061;28;20189;-67
2022/09/05 07:11:19;;;;;;;1999.90;999.90;;;23.70;99.90;;;;;;5032653;28;20176;-68
2022/09/05 07:13:58;;;;;;;1999.90;999.90;;;24.10;99.90;;;;;;5033050;28;20200;-67
2022/09/05 07:16:40;;;;;;;1999.90;999.90;;;24.50;99.90;;;;;;5033257;28;20180;-68
2022/09/05 07:19:25;;;;;;;1999.90;999.90;;;24.70;99.90;;;;;;5032853;28;20180;-67
2022/09/05 07:22:11;;;;;;;1999.90;999.90;;;24.60;99.90;;;;;;5032990;28;20185;-67
2022/09/05 07:24:42;;;;;;;1999.90;999.90;;;24.80;99.90;;;;;;5032670;28;20553;-70
2022/09/05 07:27:12;;;;;;;1999.90;999.90;;;24.60;99.90;;;;;;5033051;28;20180;-70
2022/09/05 07:29:44;;;;;;;1999.90;999.90;;;25.20;99.90;;;;;;5033025;28;20250;-73
2022/09/05 07:32:17;;;;;;;1999.90;999.90;;;25.40;96.00;;;;;;5032993;28;20187;-70
2022/09/05 07:34:47;;;;;;;1999.90;999.90;;;25.80;45.70;;;;;;5033004;28;20177;-71
2022/09/05 07:37:21;;;;;;;1999.90;999.90;;;26.20;12.70;;;;;;5032948;28;20206;-67
2022/09/05 07:39:52;;;;;;;1999.90;999.90;;;26.00;1.00;;;;;;5032438;28;20540;-68
2022/09/05 07:42:25;;;;;;;1999.90;999.90;;;26.00;1.00;;;;;;5032417;28;20188;-67
2022/09/05 07:44:56;;;;;;;1999.90;999.90;;;26.20;1.00;;;;;;5032662;28;20658;-68
2022/09/05 07:47:28;;;;;;;1999.90;999.90;;;26.50;1.00;;;;;;5032587;28;20237;-70
2022/09/05 07:49:59;;;;;;;1999.90;999.90;;;26.70;1.00;;;;;;5032653;28;20203;-69
2022/09/05 07:52:28;;;;;;;1999.90;999.90;;;27.20;1.00;;;;;;5032009;28;20188;-69
2022/09/05 07:55:00;;;;;;;1999.90;999.90;;;28.50;1.00;;;;;;5032296;28;20200;-69
2022/09/05 07:57:31;;;;;;;1999.90;999.90;;;27.90;1.00;;;;;;5032644;28;20176;-68
2022/09/05 08:00:05;;;;;;;1999.90;999.90;;;28.00;1.00;;;;;;5032148;28;20693;-68
2022/09/05 08:02:33;;;;;;;1999.90;999.90;;;27.80;1.00;;;;;;5031869;28;20183;-67
2022/09/05 08:05:04;;;;;;;1999.90;999.90;;;27.60;1.00;;;;;;5032161;28;20682;-66
2022/09/05 08:07:37;;;;;;;1999.90;999.90;;;28.00;1.00;;;;;;5032533;28;20179;-68
2022/09/05 08:10:11;;;;;;;1999.90;999.90;;;28.40;1.00;;;;;;5031354;28;20974;-68
2022/09/05 08:12:41;;;;;;;1999.90;999.90;;;28.70;1.00;;;;;;5032050;28;20185;-68
2022/09/05 08:15:13;;;;;;;1999.90;999.90;;;28.80;1.00;;;;;;5032016;28;20181;-67
2022/09/05 08:17:57;;;;;;;1999.90;999.90;;;28.60;1.00;;;;;;5031800;28;20646;-68
2022/09/05 08:20:38;;;;;;;1999.90;999.90;;;28.20;1.00;;;;;;5032363;28;20180;-69
2022/09/05 08:23:15;;;;;;;1999.90;999.90;;;28.30;1.00;;;;;;5032389;28;20189;-69
2022/09/05 08:25:52;;;;;;;1999.90;999.90;;;28.70;1.00;;;;;;5031957;28;20188;-70
2022/09/05 08:28:24;;;;;;;1999.90;999.90;;;29.40;1.00;;;;;;5032027;28;20183;-70
2022/09/05 08:30:59;;;;;;;1999.90;999.90;;;29.60;1.00;;;;;;5031909;28;20212;-70
2022/09/05 08:33:32;;;;;;;1999.90;999.90;;;29.00;1.00;;;;;;5032323;28;20194;-68
2022/09/05 08:36:04;;;;;;;1999.90;999.90;;;29.30;1.00;;;;;;5031794;28;20172;-70
2022/09/05 08:38:37;;;;;;;1999.90;999.90;;;29.60;1.00;;;;;;5031968;28;20184;-70
2022/09/05 08:41:13;;;;;;;1999.90;999.90;;;29.60;1.00;;;;;;5031899;28;20185;-70
2022/09/05 08:43:45;;;;;;;1999.90;999.90;;;29.50;1.00;;;;;;5032316;28;20188;-70
2022/09/05 08:46:17;;;;;;;1999.90;999.90;;;29.20;1.00;;;;;;5032127;28;20184;-70
2022/09/05 08:49:26;;;;;;;1999.90;999.90;;;29.00;1.00;;;;;;5031851;28;20181;-70
2022/09/05 08:51:57;;;;;;;1999.90;999.90;;;29.40;1.00;;;;;;5035614;28;20243;-70
2022/09/05 08:54:35;;;;;;;1999.90;999.90;;;29.50;1.00;;;;;;5035852;28;20180;-71
2022/09/05 08:57:12;;;;;;;1999.90;999.90;;;29.70;1.00;;;;;;5035624;28;20203;-70
2022/09/05 08:59:54;;;;;;;1999.90;999.90;;;29.60;1.00;;;;;;5035568;28;20176;-70
2022/09/05 09:02:52;;;;;;;1999.90;999.90;;;30.10;1.00;;;;;;5035492;28;20185;-69
2022/09/05 09:05:30;;;;;;;1999.90;999.90;;;29.90;1.00;;;;;;5035426;28;20180;-69
2022/09/05 09:08:06;;;;;;;1999.90;999.90;;;29.50;1.00;;;;;;5035741;28;20198;-70
2022/09/05 09:10:45;;;;;;;1999.90;999.90;;;29.70;1.00;;;;;;5035486;28;20221;-70
2022/09/05 09:13:23;;;;;;;1999.90;999.90;;;29.70;1.00;;;;;;5035309;28;20646;-70
2022/09/05 09:15:57;;;;;;;1999.90;999.90;;;30.00;1.00;;;;;;5035591;28;20180;-70
2022/09/05 09:18:38;;;;;;;1999.90;999.90;;;30.10;1.00;;;;;;5035526;28;20185;-70
2022/09/05 09:21:27;;;;;;;1999.90;999.90;;;30.60;1.00;;;;;;5035083;28;20638;-70
2022/09/05 09:24:05;;;;;;;1999.90;999.90;;;30.50;1.00;;;;;;5035318;28;20230;-69
2022/09/05 09:26:41;;;;;;;1999.90;999.90;;;30.70;1.00;;;;;;5035106;28;20190;-70
2022/09/05 09:29:11;;;;;;;1999.90;999.90;;;31.70;1.00;;;;;;5035096;28;20192;-69
2022/09/05 09:31:46;;;;;;;1999.90;999.90;;;32.00;1.00;;;;;;5034380;28;20632;-70
2022/09/05 09:34:38;;;;;;;1999.90;999.90;;;32.20;1.00;;;;;;5034761;28;20194;-70
2022/09/05 09:37:45;;;;;;;1999.90;999.90;;;31.70;1.00;;;;;;5035072;28;20185;-71
2022/09/05 09:40:52;;;;;;;1999.90;999.90;;;32.40;1.00;;;;;;5033631;28;20557;-73
2022/09/05 09:43:26;;;;;;;1999.90;999.90;;;32.20;1.00;;;;;;5016642;28;20200;-72
2022/09/05 09:46:10;;;;;;;1999.90;999.90;;;32.60;1.00;;;;;;5032375;28;20553;-72
2022/09/05 09:49:06;;;;;;;1999.90;999.90;;;32.30;1.00;;;;;;5032799;28;20181;-72
2022/09/05 09:52:01;;;;;;;1999.90;999.90;;;32.40;1.00;;;;;;5033435;28;20211;-73
2022/09/05 09:55:02;;;;;;;1999.90;999.90;;;32.70;1.00;;;;;;5032691;28;20680;-71
2022/09/05 09:58:09;;;;;;;1999.90;999.90;;;32.40;1.00;;;;;;5033936;28;20668;-69
2022/09/05 10:00:50;;;;;;;1999.90;999.90;;;32.80;1.00;;;;;;5024865;28;20239;-69
2022/09/05 10:03:41;;;;;;;1999.90;999.90;;;32.90;1.00;;;;;;5034255;28;20187;-71
2022/09/05 10:06:57;;;;;;;1999.90;999.90;;;33.00;1.00;;;;;;5034157;28;20188;-72
2022/09/05 10:09:39;;;;;;;1999.90;999.90;;;32.70;1.00;;;;;;5019376;28;20564;-71
2022/09/05 10:12:50;;;;;;;1999.90;999.90;;;32.40;1.00;;;;;;5033639;28;20548;-71
2022/09/05 10:15:26;;;;;;;1999.90;999.90;;;33.30;1.00;;;;;;5026497;28;20265;-71
2022/09/05 10:18:25;;;;;;;1999.90;999.90;;;33.20;1.00;;;;;;5034454;28;20177;-71
2022/09/05 10:21:06;;;;;;;1999.90;999.90;;;33.20;1.00;;;;;;5033619;28;20184;-71
2022/09/05 10:23:52;;;;;;;1999.90;999.90;;;33.10;1.00;;;;;;5034331;28;20176;-73
2022/09/05 10:27:04;;;;;;;1999.90;999.90;;;33.00;1.00;;;;;;5033900;28;20618;-71
2022/09/05 10:29:46;;;;;;;1999.90;999.90;;;33.40;1.00;;;;;;5023753;28;20315;-71
2022/09/05 10:32:20;;;;;;;1999.90;999.90;;;33.50;1.00;;;;;;5023753;28;20190;-71
2022/09/05 10:34:58;;;;;;;1999.90;999.90;;;33.00;1.00;;;;;;5023533;28;20188;-70
2022/09/05 10:37:35;;;;;;;1999.90;999.90;;;33.20;1.00;;;;;;5022235;28;20189;-71
2022/09/05 10:40:08;;;;;;;1999.90;999.90;;;33.40;1.00;;;;;;5021568;28;20177;-70
2022/09/05 10:42:42;;;;;;;1999.90;999.90;;;33.40;1.00;;;;;;5021507;28;20539;-70
2022/09/05 10:45:16;;;;;;;1999.90;999.90;;;33.40;1.00;;;;;;5024322;28;20184;-70
2022/09/05 10:47:50;;;;;;;1999.90;999.90;;;33.20;1.00;;;;;;5021100;28;20271;-70
2022/09/05 10:50:28;;;;;;;1999.90;999.90;;;33.40;1.00;;;;;;5033177;28;20205;-70
2022/09/05 10:53:21;;;;;;;1999.90;999.90;;;33.30;1.00;;;;;;5032439;28;20556;-70
2022/09/05 10:56:00;;;;;;;1999.90;999.90;;;33.90;1.00;;;;;;5032058;28;20279;-71
2022/09/05 10:58:47;;;;;;;1999.90;999.90;;;33.80;1.00;;;;;;5032957;28;20699;-69
2022/09/05 11:01:28;;;;;;;1999.90;999.90;;;33.80;1.00;;;;;;5032869;28;20578;-70
2022/09/05 11:04:05;;;;;;;1999.90;999.90;;;33.60;1.00;;;;;;5033805;28;20184;-69
2022/09/05 11:06:49;;;;;;;1999.90;999.90;;;33.70;1.00;;;;;;5032555;28;20180;-70
2022/09/05 11:09:39;;;;;;;1999.90;999.90;;;33.50;1.00;;;;;;5033075;28;20189;-70
2022/09/05 11:12:18;;;;;;;1999.90;999.90;;;33.30;1.00;;;;;;5032699;28;20196;-70
2022/09/05 11:14:51;;;;;;;1999.90;999.90;;;33.30;1.00;;;;;;5031854;28;20188;-70
2022/09/05 11:17:28;;;;;;;1999.90;999.90;;;34.00;1.00;;;;;;5032039;28;20548;-70
2022/09/05 11:20:07;;;;;;;1999.90;999.90;;;34.60;1.00;;;;;;5032251;28;20184;-70
2022/09/05 11:22:39;;;;;;;1999.90;999.90;;;34.20;1.00;;;;;;5033164;28;20181;-71
2022/09/05 11:25:14;;;;;;;1999.90;999.90;;;34.00;1.00;;;;;;5033079;28;20191;-71
2022/09/05 11:27:45;;;;;;;1999.90;999.90;;;34.00;1.00;;;;;;5022480;28;20200;-70
2022/09/05 11:30:16;;;;;;;1999.90;999.90;;;34.00;1.00;;;;;;5010941;28;20215;-68
2022/09/05 11:33:14;;;;;;;1999.90;999.90;;;33.90;1.00;;;;;;5012907;28;20534;-69
2022/09/05 11:35:46;;;;;;;1999.90;999.90;;;33.80;1.00;;;;;;5012428;28;20549;-71
2022/09/05 11:38:44;;;;;;;1999.90;999.90;;;33.70;1.00;;;;;;5012118;28;20185;-71
2022/09/05 11:41:43;;;;;;;1999.90;999.90;;;33.70;1.00;;;;;;5011854;28;20200;-70
2022/09/05 11:44:24;;;;;;;1999.90;999.90;;;33.70;1.00;;;;;;5012046;28;20187;-70
2022/09/05 11:47:17;;;;;;;1999.90;999.90;;;33.70;1.00;;;;;;5012154;28;20200;-71
2022/09/05 11:50:09;;;;;;;1999.90;999.90;;;33.50;1.00;;;;;;4986327;28;20208;-70
2022/09/05 11:53:04;;;;;;;1999.90;999.90;;;34.50;1.00;;;;;;5012165;28;20211;-71
2022/09/05 11:56:02;;;;;;;1999.90;999.90;;;35.40;1.00;;;;;;5012582;28;20196;-73
2022/09/05 11:58:51;;;;;;;1999.90;999.90;;;34.30;1.00;;;;;;5011754;28;20242;-72
2022/09/05 12:01:27;;;;;;;1999.90;999.90;;;34.50;1.00;;;;;;5012464;28;20229;-70
2022/09/05 12:04:15;;;;;;;1999.90;999.90;;;34.30;1.00;;;;;;5011559;28;20181;-69
2022/09/05 12:07:14;;;;;;;1999.90;999.90;;;33.80;1.00;;;;;;5012399;28;20177;-71
2022/09/05 12:09:53;;;;;;;1999.90;999.90;;;33.50;1.00;;;;;;5006523;28;20211;-72
2022/09/05 12:12:34;;;;;;;1999.90;999.90;;;34.40;1.00;;;;;;5011214;28;20204;-71
2022/09/05 12:15:10;;;;;;;1999.90;999.90;;;34.80;1.00;;;;;;5011470;28;20183;-71
2022/09/05 12:17:49;;;;;;;1999.90;999.90;;;34.10;1.00;;;;;;5011951;28;20189;-71
2022/09/05 12:20:23;;;;;;;1999.90;999.90;;;34.20;1.00;;;;;;5012205;28;20185;-71
2022/09/05 12:22:57;;;;;;;1999.90;999.90;;;33.60;1.00;;;;;;5012254;28;20187;-71
2022/09/05 12:25:36;;;;;;;1999.90;999.90;;;33.60;1.00;;;;;;5015581;28;20207;-71
2022/09/05 12:28:07;;;;;;;1999.90;999.90;;;33.50;1.00;;;;;;5016673;28;20191;-71
2022/09/05 12:30:38;;;;;;;1999.90;999.90;;;33.10;1.00;;;;;;5016516;28;20205;-71
2022/09/05 12:33:21;;;;;;;1999.90;999.90;;;33.20;1.00;;;;;;5015088;28;20185;-71
2022/09/05 12:35:54;;;;;;;1999.90;999.90;;;33.40;1.00;;;;;;5015242;28;20189;-71
2022/09/05 12:38:34;;;;;;;1999.90;999.90;;;33.50;1.00;;;;;;5015456;28;20181;-71
2022/09/05 12:41:08;;;;;;;1999.90;999.90;;;33.00;1.00;;;;;;5015977;28;20183;-71
2022/09/05 12:43:41;;;;;;;1999.90;999.90;;;32.90;1.00;;;;;;5016067;28;20192;-68
2022/09/05 12:46:15;;;;;;;1999.90;999.90;;;33.10;1.00;;;;;;5015800;28;20207;-69
2022/09/05 12:48:50;;;;;;;1999.90;999.90;;;33.10;1.00;;;;;;5014541;28;20250;-69
2022/09/05 12:51:19;;;;;;;1999.90;999.90;;;33.20;1.00;;;;;;5015349;28;20576;-71
2022/09/05 12:53:50;;;;;;;1999.90;999.90;;;32.80;1.00;;;;;;5016301;28;20670;-71
2022/09/05 12:56:25;;;;;;;1999.90;999.90;;;32.70;1.00;;;;;;5025257;28;20684;-71
2022/09/05 12:58:55;;;;;;;1999.90;999.90;;;32.30;1.00;;;;;;5029871;28;20187;-70
2022/09/05 13:01:27;;;;;;;1999.90;999.90;;;32.10;1.00;;;;;;5035008;28;20220;-69
2022/09/05 13:04:01;;;;;;;1999.90;999.90;;;32.00;1.00;;;;;;5035616;28;20191;-69
2022/09/05 13:06:34;;;;;;;1999.90;999.90;;;31.70;1.00;;;;;;5035452;28;20545;-70
2022/09/05 13:09:05;;;;;;;1999.90;999.90;;;31.40;1.00;;;;;;5035385;28;20184;-70
2022/09/05 13:11:44;;;;;;;1999.90;999.90;;;31.20;1.00;;;;;;5034113;28;20217;-70